OKBO2: North Canadian River at Britton Rd at OKC, OK

                                SHEF ID:       OKBO2     North Canadian River at Britton
STATION TYPE:

STAGE RIV-FLOW WTR-TEMP DIS-OXY CONDUCT BAT-LOAD
ft cfs F mg/l umho/cm volt
Ccp-Rev Ccp-Rev Ccp-Rev Ccp-Rev Ccp-Rev Ccp-Rev
(America/Chicago)
08/25 00:00 4.42 11 86.65 7.99 891 11.97
08/25 01:00 4.42 11 86.02 6.80 893 11.96
08/25 02:00 4.44 12 85.30 5.66 903 11.96
08/25 03:00 4.45 13 84.74 4.86 904 11.96
08/25 04:00 4.47 14 83.80 3.94 910 11.95
08/25 05:00 4.48 15 82.81 4.17 910 11.94
08/25 06:00 4.48 15 81.95 4.00 911 11.94
08/25 07:00 4.48 15 81.14 4.00 911 11.92
08/25 08:00 4.49 15 80.64 3.80 912 12.07
08/25 09:00 4.49 15 80.67 5.38 916 12.86
08/25 10:00 4.49 15 81.45 7.75 914 12.93
08/25 11:00 4.48 15 82.58 9.62 912 12.65
08/25 12:00 4.46 13 85.10 11.85 907 12.40
08/25 13:00 4.44 12 87.82 14.12 903 12.28
08/25 14:00 4.40 10 90.66 16.34 863 12.22
08/25 15:00 4.42 11 92.19 17.75 866 12.21
08/25 16:00 4.38 9 92.01 18.77 874 12.16
08/25 17:00 4.42 11 92.23 19.22 863 12.19
08/25 18:00 4.41 11 91.24 18.20 848 12.26
08/25 19:00 4.40 10 90.48 17.15 771 12.31
08/25 20:00 4.41 11 89.35 14.63 835 12.17
08/25 21:00 4.41 11 88.27 12.05 851 12.04
08/25 22:00 4.42 11 87.48 9.78 852 12.00
08/25 23:00 4.43 12 86.90 8.06 849 11.99
Data processed at Wed 26Aug2026 04:25 GMT

NOTICE: If you are parsing this page

Please convert to using our Data API. Starting early 2026 we will be migrating to: https://water.usace.army.mil with modern pages rendered in JavaScript. When this migration completes you will no longer be able to scrape this page! CWMSDataAPI (CDA)

Timeseries IDs (TSIDs)

TSIDs used from left to right in the data table
OKC3.Stage.Inst.1Hour.0.Ccp-Rev
OKC3.Flow.Inst.1Hour.0.Ccp-Rev
OKC3.Temp-Water.Inst.1Hour.0.Ccp-Rev
OKC3.Conc-DO.Inst.1Hour.0.Ccp-Rev
OKC3.Cond-Water.Inst.1Hour.0.Ccp-Rev
OKC3.Volt-Battery Load.Inst.1Hour.0.Ccp-Rev

                            

All information presented herein is the property of the government of the United States of America and may be revised or deleted at any time without prior notice. Dissemination of this information without the expressed written consent of the Public Affairs Office, Tulsa District U.S. Army Corps of Engineers is strictly prohibited. These data are gathered electronically and, as presented, have NOT undergone any form of quality control. These data are NOT guaranteed to be valid or correct.